sensor_id;sensor_type;location;lat;lon;timestamp;P1;durP1;ratioP1;P2;durP2;ratioP2
84897;SDS011;75162;42.120;21.734;2024-01-07T00:01:08;8.18;;;3.60;;
84897;SDS011;75162;42.120;21.734;2024-01-07T00:03:35;12.98;;;3.20;;
84897;SDS011;75162;42.120;21.734;2024-01-07T00:06:01;7.97;;;4.15;;
84897;SDS011;75162;42.120;21.734;2024-01-07T00:08:27;7.15;;;2.85;;
84897;SDS011;75162;42.120;21.734;2024-01-07T00:10:53;9.70;;;3.50;;
84897;SDS011;75162;42.120;21.734;2024-01-07T00:13:19;8.50;;;3.05;;
84897;SDS011;75162;42.120;21.734;2024-01-07T00:15:45;9.65;;;3.03;;
84897;SDS011;75162;42.120;21.734;2024-01-07T00:18:11;9.52;;;3.30;;
84897;SDS011;75162;42.120;21.734;2024-01-07T00:20:37;11.48;;;3.92;;
84897;SDS011;75162;42.120;21.734;2024-01-07T00:23:03;8.45;;;3.17;;
84897;SDS011;75162;42.120;21.734;2024-01-07T00:25:30;11.30;;;3.28;;
84897;SDS011;75162;42.120;21.734;2024-01-07T00:27:56;8.75;;;3.50;;
84897;SDS011;75162;42.120;21.734;2024-01-07T00:30:22;11.35;;;3.90;;
84897;SDS011;75162;42.120;21.734;2024-01-07T00:32:48;9.13;;;3.47;;
84897;SDS011;75162;42.120;21.734;2024-01-07T00:35:16;10.15;;;4.32;;
84897;SDS011;75162;42.120;21.734;2024-01-07T00:37:42;15.00;;;5.22;;
84897;SDS011;75162;42.120;21.734;2024-01-07T00:40:08;8.80;;;4.13;;
84897;SDS011;75162;42.120;21.734;2024-01-07T00:42:35;8.88;;;3.33;;
84897;SDS011;75162;42.120;21.734;2024-01-07T00:45:01;4.82;;;2.50;;
84897;SDS011;75162;42.120;21.734;2024-01-07T00:47:28;5.05;;;2.78;;
84897;SDS011;75162;42.120;21.734;2024-01-07T00:49:54;5.88;;;2.22;;
84897;SDS011;75162;42.120;21.734;2024-01-07T00:52:20;7.97;;;2.50;;
84897;SDS011;75162;42.120;21.734;2024-01-07T00:54:48;5.53;;;2.10;;
84897;SDS011;75162;42.120;21.734;2024-01-07T00:57:14;3.15;;;1.77;;
84897;SDS011;75162;42.120;21.734;2024-01-07T00:59:40;4.10;;;1.50;;
84897;SDS011;75162;42.120;21.734;2024-01-07T01:02:06;6.65;;;1.23;;
84897;SDS011;75162;42.120;21.734;2024-01-07T01:04:32;3.65;;;1.30;;
84897;SDS011;75162;42.120;21.734;2024-01-07T01:06:58;2.28;;;1.20;;
84897;SDS011;75162;42.120;21.734;2024-01-07T01:09:24;2.10;;;1.15;;
84897;SDS011;75162;42.120;21.734;2024-01-07T01:11:53;1.00;;;0.60;;
84897;SDS011;75162;42.120;21.734;2024-01-07T01:14:19;6.43;;;1.40;;
84897;SDS011;75162;42.120;21.734;2024-01-07T01:16:45;3.38;;;1.42;;
84897;SDS011;75162;42.120;21.734;2024-01-07T01:19:11;7.57;;;3.85;;
84897;SDS011;75162;42.120;21.734;2024-01-07T01:21:37;7.28;;;3.30;;
84897;SDS011;75162;42.120;21.734;2024-01-07T01:24:03;2.83;;;1.30;;
84897;SDS011;75162;42.120;21.734;2024-01-07T01:26:29;3.28;;;1.52;;
84897;SDS011;75162;42.120;21.734;2024-01-07T01:28:55;3.45;;;1.02;;
84897;SDS011;75162;42.120;21.734;2024-01-07T01:31:21;3.13;;;1.25;;
84897;SDS011;75162;42.120;21.734;2024-01-07T01:33:47;1.25;;;0.73;;
84897;SDS011;75162;42.120;21.734;2024-01-07T01:36:14;4.07;;;0.85;;
84897;SDS011;75162;42.120;21.734;2024-01-07T01:38:40;3.13;;;1.10;;
84897;SDS011;75162;42.120;21.734;2024-01-07T01:41:06;1.45;;;0.85;;
84897;SDS011;75162;42.120;21.734;2024-01-07T01:43:32;3.78;;;1.02;;
84897;SDS011;75162;42.120;21.734;2024-01-07T01:45:58;3.47;;;1.25;;
84897;SDS011;75162;42.120;21.734;2024-01-07T01:48:25;2.17;;;1.35;;
84897;SDS011;75162;42.120;21.734;2024-01-07T01:50:53;2.95;;;1.42;;
84897;SDS011;75162;42.120;21.734;2024-01-07T01:53:19;1.77;;;1.20;;
84897;SDS011;75162;42.120;21.734;2024-01-07T01:55:45;2.90;;;1.40;;
84897;SDS011;75162;42.120;21.734;2024-01-07T01:58:12;2.65;;;1.58;;
84897;SDS011;75162;42.120;21.734;2024-01-07T02:00:39;5.55;;;1.80;;
84897;SDS011;75162;42.120;21.734;2024-01-07T02:03:05;1.92;;;1.58;;
84897;SDS011;75162;42.120;21.734;2024-01-07T02:05:31;3.88;;;1.42;;
84897;SDS011;75162;42.120;21.734;2024-01-07T02:07:57;4.07;;;1.88;;
84897;SDS011;75162;42.120;21.734;2024-01-07T02:10:24;4.43;;;1.55;;
84897;SDS011;75162;42.120;21.734;2024-01-07T02:12:50;2.70;;;2.00;;
84897;SDS011;75162;42.120;21.734;2024-01-07T02:15:17;2.90;;;1.58;;
84897;SDS011;75162;42.120;21.734;2024-01-07T02:17:43;2.47;;;1.35;;
84897;SDS011;75162;42.120;21.734;2024-01-07T02:20:09;4.18;;;1.73;;
84897;SDS011;75162;42.120;21.734;2024-01-07T02:22:35;5.75;;;2.50;;
84897;SDS011;75162;42.120;21.734;2024-01-07T02:25:01;5.50;;;2.38;;
84897;SDS011;75162;42.120;21.734;2024-01-07T02:27:28;5.28;;;2.40;;
84897;SDS011;75162;42.120;21.734;2024-01-07T02:29:54;3.30;;;1.45;;
84897;SDS011;75162;42.120;21.734;2024-01-07T02:32:21;2.60;;;1.73;;
84897;SDS011;75162;42.120;21.734;2024-01-07T02:34:47;4.80;;;1.80;;
84897;SDS011;75162;42.120;21.734;2024-01-07T02:37:13;2.47;;;1.08;;
84897;SDS011;75162;42.120;21.734;2024-01-07T02:39:39;1.40;;;0.90;;
84897;SDS011;75162;42.120;21.734;2024-01-07T02:42:05;2.45;;;1.10;;
84897;SDS011;75162;42.120;21.734;2024-01-07T02:44:32;3.42;;;1.45;;
84897;SDS011;75162;42.120;21.734;2024-01-07T02:46:58;7.93;;;4.05;;
84897;SDS011;75162;42.120;21.734;2024-01-07T02:49:24;8.40;;;4.03;;
84897;SDS011;75162;42.120;21.734;2024-01-07T02:51:50;6.15;;;3.35;;
84897;SDS011;75162;42.120;21.734;2024-01-07T02:54:16;4.10;;;2.92;;
84897;SDS011;75162;42.120;21.734;2024-01-07T02:56:42;6.32;;;3.22;;
84897;SDS011;75162;42.120;21.734;2024-01-07T02:59:08;4.43;;;2.40;;
84897;SDS011;75162;42.120;21.734;2024-01-07T03:01:34;4.57;;;2.28;;
84897;SDS011;75162;42.120;21.734;2024-01-07T03:04:05;5.78;;;2.92;;
84897;SDS011;75162;42.120;21.734;2024-01-07T03:06:32;19.42;;;10.60;;
84897;SDS011;75162;42.120;21.734;2024-01-07T03:08:59;42.35;;;25.35;;
84897;SDS011;75162;42.120;21.734;2024-01-07T03:11:25;16.80;;;10.07;;
84897;SDS011;75162;42.120;21.734;2024-01-07T03:13:51;16.45;;;11.15;;
84897;SDS011;75162;42.120;21.734;2024-01-07T03:16:20;9.38;;;5.53;;
84897;SDS011;75162;42.120;21.734;2024-01-07T03:18:47;6.32;;;4.68;;
84897;SDS011;75162;42.120;21.734;2024-01-07T03:21:30;5.10;;;3.17;;
84897;SDS011;75162;42.120;21.734;2024-01-07T03:23:57;5.78;;;4.00;;
84897;SDS011;75162;42.120;21.734;2024-01-07T03:26:23;8.38;;;5.80;;
84897;SDS011;75162;42.120;21.734;2024-01-07T03:28:49;9.70;;;5.68;;
84897;SDS011;75162;42.120;21.734;2024-01-07T03:31:15;7.80;;;4.53;;
84897;SDS011;75162;42.120;21.734;2024-01-07T03:33:42;5.72;;;3.60;;
84897;SDS011;75162;42.120;21.734;2024-01-07T03:36:08;6.82;;;3.92;;
84897;SDS011;75162;42.120;21.734;2024-01-07T03:38:35;6.35;;;3.90;;
84897;SDS011;75162;42.120;21.734;2024-01-07T03:41:01;7.15;;;3.53;;
84897;SDS011;75162;42.120;21.734;2024-01-07T03:43:27;6.95;;;3.65;;
84897;SDS011;75162;42.120;21.734;2024-01-07T03:45:54;5.25;;;3.58;;
84897;SDS011;75162;42.120;21.734;2024-01-07T03:48:20;10.07;;;5.53;;
84897;SDS011;75162;42.120;21.734;2024-01-07T03:50:46;5.45;;;3.22;;
84897;SDS011;75162;42.120;21.734;2024-01-07T03:53:12;4.65;;;3.22;;
84897;SDS011;75162;42.120;21.734;2024-01-07T03:55:38;5.75;;;4.93;;
84897;SDS011;75162;42.120;21.734;2024-01-07T03:58:05;8.23;;;5.93;;
84897;SDS011;75162;42.120;21.734;2024-01-07T04:00:31;8.85;;;5.30;;
84897;SDS011;75162;42.120;21.734;2024-01-07T04:02:57;5.18;;;3.40;;
84897;SDS011;75162;42.120;21.734;2024-01-07T04:05:23;6.45;;;3.85;;
84897;SDS011;75162;42.120;21.734;2024-01-07T04:07:50;7.43;;;4.43;;
84897;SDS011;75162;42.120;21.734;2024-01-07T04:10:16;8.15;;;4.97;;
84897;SDS011;75162;42.120;21.734;2024-01-07T04:12:42;8.77;;;5.47;;
84897;SDS011;75162;42.120;21.734;2024-01-07T04:15:09;10.50;;;5.80;;
84897;SDS011;75162;42.120;21.734;2024-01-07T04:17:35;9.02;;;5.85;;
84897;SDS011;75162;42.120;21.734;2024-01-07T04:20:01;9.70;;;6.22;;
84897;SDS011;75162;42.120;21.734;2024-01-07T04:22:27;9.00;;;6.25;;
84897;SDS011;75162;42.120;21.734;2024-01-07T04:24:53;10.80;;;6.70;;
84897;SDS011;75162;42.120;21.734;2024-01-07T04:27:19;9.70;;;5.68;;
84897;SDS011;75162;42.120;21.734;2024-01-07T04:29:46;9.52;;;5.85;;
84897;SDS011;75162;42.120;21.734;2024-01-07T04:32:12;9.85;;;5.75;;
84897;SDS011;75162;42.120;21.734;2024-01-07T04:34:38;7.57;;;5.13;;
84897;SDS011;75162;42.120;21.734;2024-01-07T04:37:04;7.47;;;4.50;;
84897;SDS011;75162;42.120;21.734;2024-01-07T04:39:30;8.48;;;5.32;;
84897;SDS011;75162;42.120;21.734;2024-01-07T04:41:56;8.18;;;5.63;;
84897;SDS011;75162;42.120;21.734;2024-01-07T04:44:22;12.02;;;7.80;;
84897;SDS011;75162;42.120;21.734;2024-01-07T04:46:48;18.02;;;11.63;;
84897;SDS011;75162;42.120;21.734;2024-01-07T04:49:14;14.68;;;8.57;;
84897;SDS011;75162;42.120;21.734;2024-01-07T04:51:41;12.57;;;8.38;;
84897;SDS011;75162;42.120;21.734;2024-01-07T04:54:07;12.70;;;7.53;;
84897;SDS011;75162;42.120;21.734;2024-01-07T04:56:33;11.05;;;6.55;;
84897;SDS011;75162;42.120;21.734;2024-01-07T04:58:59;9.27;;;6.25;;
84897;SDS011;75162;42.120;21.734;2024-01-07T05:01:25;9.73;;;6.38;;
84897;SDS011;75162;42.120;21.734;2024-01-07T05:03:51;8.82;;;5.90;;
84897;SDS011;75162;42.120;21.734;2024-01-07T05:06:17;9.05;;;4.63;;
84897;SDS011;75162;42.120;21.734;2024-01-07T05:08:43;4.38;;;3.35;;
84897;SDS011;75162;42.120;21.734;2024-01-07T05:11:09;4.03;;;2.45;;
84897;SDS011;75162;42.120;21.734;2024-01-07T05:13:36;2.67;;;1.83;;
84897;SDS011;75162;42.120;21.734;2024-01-07T05:16:02;2.72;;;1.83;;
84897;SDS011;75162;42.120;21.734;2024-01-07T05:18:28;3.65;;;1.67;;
84897;SDS011;75162;42.120;21.734;2024-01-07T05:20:54;1.60;;;1.17;;
84897;SDS011;75162;42.120;21.734;2024-01-07T05:23:21;1.30;;;0.90;;
84897;SDS011;75162;42.120;21.734;2024-01-07T05:25:47;2.58;;;1.30;;
84897;SDS011;75162;42.120;21.734;2024-01-07T05:28:13;3.25;;;1.70;;
84897;SDS011;75162;42.120;21.734;2024-01-07T05:30:39;3.20;;;1.90;;
84897;SDS011;75162;42.120;21.734;2024-01-07T05:33:05;12.23;;;5.07;;
84897;SDS011;75162;42.120;21.734;2024-01-07T05:35:31;9.65;;;4.47;;
84897;SDS011;75162;42.120;21.734;2024-01-07T05:37:58;7.35;;;3.67;;
84897;SDS011;75162;42.120;21.734;2024-01-07T05:40:24;8.05;;;3.70;;
84897;SDS011;75162;42.120;21.734;2024-01-07T05:42:50;11.55;;;5.20;;
84897;SDS011;75162;42.120;21.734;2024-01-07T05:45:16;3.60;;;1.90;;
84897;SDS011;75162;42.120;21.734;2024-01-07T05:47:42;8.93;;;5.10;;
84897;SDS011;75162;42.120;21.734;2024-01-07T05:50:08;22.17;;;12.95;;
84897;SDS011;75162;42.120;21.734;2024-01-07T05:52:35;22.27;;;15.30;;
84897;SDS011;75162;42.120;21.734;2024-01-07T05:55:01;29.55;;;18.63;;
84897;SDS011;75162;42.120;21.734;2024-01-07T05:57:28;24.10;;;16.15;;
84897;SDS011;75162;42.120;21.734;2024-01-07T05:59:54;26.27;;;18.55;;
84897;SDS011;75162;42.120;21.734;2024-01-07T06:02:20;29.27;;;18.65;;
84897;SDS011;75162;42.120;21.734;2024-01-07T06:04:47;23.25;;;16.35;;
84897;SDS011;75162;42.120;21.734;2024-01-07T06:07:14;28.98;;;17.80;;
84897;SDS011;75162;42.120;21.734;2024-01-07T06:09:40;26.48;;;17.77;;
84897;SDS011;75162;42.120;21.734;2024-01-07T06:12:06;29.92;;;18.17;;
84897;SDS011;75162;42.120;21.734;2024-01-07T06:14:32;23.50;;;16.55;;
84897;SDS011;75162;42.120;21.734;2024-01-07T06:16:58;22.60;;;16.38;;
84897;SDS011;75162;42.120;21.734;2024-01-07T06:19:24;24.95;;;16.38;;
84897;SDS011;75162;42.120;21.734;2024-01-07T06:21:51;24.48;;;16.38;;
84897;SDS011;75162;42.120;21.734;2024-01-07T06:24:17;26.60;;;16.58;;
84897;SDS011;75162;42.120;21.734;2024-01-07T06:26:43;23.63;;;16.23;;
84897;SDS011;75162;42.120;21.734;2024-01-07T06:29:09;28.85;;;19.25;;
84897;SDS011;75162;42.120;21.734;2024-01-07T06:31:35;30.10;;;18.60;;
84897;SDS011;75162;42.120;21.734;2024-01-07T06:34:01;35.38;;;21.42;;
84897;SDS011;75162;42.120;21.734;2024-01-07T06:36:27;32.60;;;21.13;;
84897;SDS011;75162;42.120;21.734;2024-01-07T06:38:54;27.20;;;18.05;;
84897;SDS011;75162;42.120;21.734;2024-01-07T06:41:20;31.30;;;19.40;;
84897;SDS011;75162;42.120;21.734;2024-01-07T06:43:46;31.98;;;19.70;;
84897;SDS011;75162;42.120;21.734;2024-01-07T06:46:12;34.72;;;20.40;;
84897;SDS011;75162;42.120;21.734;2024-01-07T06:48:38;32.15;;;21.40;;
84897;SDS011;75162;42.120;21.734;2024-01-07T06:51:04;34.88;;;21.90;;
84897;SDS011;75162;42.120;21.734;2024-01-07T06:53:30;35.10;;;22.77;;
84897;SDS011;75162;42.120;21.734;2024-01-07T06:55:56;36.00;;;22.75;;
84897;SDS011;75162;42.120;21.734;2024-01-07T06:58:22;39.30;;;23.15;;
84897;SDS011;75162;42.120;21.734;2024-01-07T07:00:48;33.70;;;23.13;;
84897;SDS011;75162;42.120;21.734;2024-01-07T07:03:15;40.58;;;26.88;;
84897;SDS011;75162;42.120;21.734;2024-01-07T07:05:41;52.42;;;32.35;;
84897;SDS011;75162;42.120;21.734;2024-01-07T07:08:07;59.63;;;35.13;;
84897;SDS011;75162;42.120;21.734;2024-01-07T07:10:34;52.30;;;32.58;;
84897;SDS011;75162;42.120;21.734;2024-01-07T07:13:00;42.80;;;27.70;;
84897;SDS011;75162;42.120;21.734;2024-01-07T07:15:26;44.17;;;28.75;;
84897;SDS011;75162;42.120;21.734;2024-01-07T07:17:53;44.55;;;29.75;;
84897;SDS011;75162;42.120;21.734;2024-01-07T07:20:20;49.15;;;30.08;;
84897;SDS011;75162;42.120;21.734;2024-01-07T07:22:47;49.47;;;31.23;;
84897;SDS011;75162;42.120;21.734;2024-01-07T07:25:13;57.83;;;35.40;;
84897;SDS011;75162;42.120;21.734;2024-01-07T07:27:39;54.90;;;34.83;;
84897;SDS011;75162;42.120;21.734;2024-01-07T07:30:05;68.47;;;43.35;;
84897;SDS011;75162;42.120;21.734;2024-01-07T07:32:31;88.38;;;51.97;;
84897;SDS011;75162;42.120;21.734;2024-01-07T07:34:58;88.25;;;52.35;;
84897;SDS011;75162;42.120;21.734;2024-01-07T07:37:25;64.78;;;40.53;;
84897;SDS011;75162;42.120;21.734;2024-01-07T07:39:51;58.58;;;36.50;;
84897;SDS011;75162;42.120;21.734;2024-01-07T07:42:17;59.45;;;37.25;;
84897;SDS011;75162;42.120;21.734;2024-01-07T07:44:43;65.28;;;38.70;;
84897;SDS011;75162;42.120;21.734;2024-01-07T07:47:09;66.28;;;41.80;;
84897;SDS011;75162;42.120;21.734;2024-01-07T07:49:37;63.50;;;39.10;;
84897;SDS011;75162;42.120;21.734;2024-01-07T07:52:05;59.00;;;38.72;;
84897;SDS011;75162;42.120;21.734;2024-01-07T07:54:31;65.65;;;42.72;;
84897;SDS011;75162;42.120;21.734;2024-01-07T07:56:57;69.53;;;45.78;;
84897;SDS011;75162;42.120;21.734;2024-01-07T07:59:23;67.60;;;43.92;;
84897;SDS011;75162;42.120;21.734;2024-01-07T08:01:49;70.68;;;45.65;;
84897;SDS011;75162;42.120;21.734;2024-01-07T08:04:15;80.35;;;50.10;;
84897;SDS011;75162;42.120;21.734;2024-01-07T08:06:42;91.50;;;55.40;;
84897;SDS011;75162;42.120;21.734;2024-01-07T08:09:10;81.13;;;50.75;;
84897;SDS011;75162;42.120;21.734;2024-01-07T08:11:36;74.40;;;45.28;;
84897;SDS011;75162;42.120;21.734;2024-01-07T08:14:02;63.95;;;37.80;;
84897;SDS011;75162;42.120;21.734;2024-01-07T08:16:31;65.30;;;37.53;;
84897;SDS011;75162;42.120;21.734;2024-01-07T08:18:57;58.83;;;35.63;;
84897;SDS011;75162;42.120;21.734;2024-01-07T08:21:23;61.83;;;37.25;;
84897;SDS011;75162;42.120;21.734;2024-01-07T08:23:50;64.18;;;38.95;;
84897;SDS011;75162;42.120;21.734;2024-01-07T08:26:19;78.43;;;46.70;;
84897;SDS011;75162;42.120;21.734;2024-01-07T08:28:45;86.95;;;49.53;;
84897;SDS011;75162;42.120;21.734;2024-01-07T08:31:11;79.03;;;46.30;;
84897;SDS011;75162;42.120;21.734;2024-01-07T08:33:37;127.53;;;67.88;;
84897;SDS011;75162;42.120;21.734;2024-01-07T08:36:04;179.55;;;95.43;;
84897;SDS011;75162;42.120;21.734;2024-01-07T08:38:30;102.78;;;60.83;;
84897;SDS011;75162;42.120;21.734;2024-01-07T08:40:56;77.75;;;48.70;;
84897;SDS011;75162;42.120;21.734;2024-01-07T08:43:22;102.68;;;62.63;;
84897;SDS011;75162;42.120;21.734;2024-01-07T08:45:49;98.97;;;60.47;;
84897;SDS011;75162;42.120;21.734;2024-01-07T08:48:15;89.20;;;54.97;;
84897;SDS011;75162;42.120;21.734;2024-01-07T08:50:41;103.75;;;60.80;;
84897;SDS011;75162;42.120;21.734;2024-01-07T08:53:07;114.63;;;71.60;;
84897;SDS011;75162;42.120;21.734;2024-01-07T08:55:33;133.93;;;81.50;;
84897;SDS011;75162;42.120;21.734;2024-01-07T08:58:00;105.15;;;64.20;;
84897;SDS011;75162;42.120;21.734;2024-01-07T09:00:26;89.43;;;54.53;;
84897;SDS011;75162;42.120;21.734;2024-01-07T09:02:56;100.68;;;63.10;;
84897;SDS011;75162;42.120;21.734;2024-01-07T09:05:22;111.30;;;68.55;;
84897;SDS011;75162;42.120;21.734;2024-01-07T09:07:49;103.60;;;63.03;;
84897;SDS011;75162;42.120;21.734;2024-01-07T09:10:15;96.25;;;62.53;;
84897;SDS011;75162;42.120;21.734;2024-01-07T09:12:43;116.35;;;71.50;;
84897;SDS011;75162;42.120;21.734;2024-01-07T09:15:09;109.65;;;67.25;;
84897;SDS011;75162;42.120;21.734;2024-01-07T09:17:35;165.30;;;100.28;;
84897;SDS011;75162;42.120;21.734;2024-01-07T09:20:03;152.68;;;90.47;;
84897;SDS011;75162;42.120;21.734;2024-01-07T09:22:32;126.63;;;76.28;;
84897;SDS011;75162;42.120;21.734;2024-01-07T09:24:58;107.68;;;68.10;;
84897;SDS011;75162;42.120;21.734;2024-01-07T09:27:25;142.35;;;77.15;;
84897;SDS011;75162;42.120;21.734;2024-01-07T09:29:51;133.68;;;76.80;;
84897;SDS011;75162;42.120;21.734;2024-01-07T09:32:17;121.32;;;72.00;;
84897;SDS011;75162;42.120;21.734;2024-01-07T09:34:43;109.53;;;68.50;;
84897;SDS011;75162;42.120;21.734;2024-01-07T09:37:09;89.57;;;56.03;;
84897;SDS011;75162;42.120;21.734;2024-01-07T09:39:38;85.90;;;55.80;;
84897;SDS011;75162;42.120;21.734;2024-01-07T09:42:07;81.78;;;52.08;;
84897;SDS011;75162;42.120;21.734;2024-01-07T09:44:33;98.13;;;61.65;;
84897;SDS011;75162;42.120;21.734;2024-01-07T09:47:00;102.88;;;59.78;;
84897;SDS011;75162;42.120;21.734;2024-01-07T09:49:26;82.50;;;54.05;;
84897;SDS011;75162;42.120;21.734;2024-01-07T09:51:53;77.43;;;51.33;;
84897;SDS011;75162;42.120;21.734;2024-01-07T09:54:21;41.53;;;27.20;;
84897;SDS011;75162;42.120;21.734;2024-01-07T09:56:55;11.02;;;4.82;;
84897;SDS011;75162;42.120;21.734;2024-01-07T09:59:27;10.43;;;5.82;;
84897;SDS011;75162;42.120;21.734;2024-01-07T10:01:54;9.57;;;3.95;;
84897;SDS011;75162;42.120;21.734;2024-01-07T10:04:21;10.80;;;4.80;;
84897;SDS011;75162;42.120;21.734;2024-01-07T10:06:47;8.38;;;4.63;;
84897;SDS011;75162;42.120;21.734;2024-01-07T10:09:17;5.30;;;2.30;;
84897;SDS011;75162;42.120;21.734;2024-01-07T10:11:46;11.82;;;5.88;;
84897;SDS011;75162;42.120;21.734;2024-01-07T10:14:12;8.73;;;4.13;;
84897;SDS011;75162;42.120;21.734;2024-01-07T10:16:38;8.38;;;4.38;;
84897;SDS011;75162;42.120;21.734;2024-01-07T10:19:05;5.82;;;3.10;;
84897;SDS011;75162;42.120;21.734;2024-01-07T10:21:32;9.43;;;4.53;;
84897;SDS011;75162;42.120;21.734;2024-01-07T10:24:11;11.32;;;4.63;;
84897;SDS011;75162;42.120;21.734;2024-01-07T10:26:38;11.95;;;5.63;;
84897;SDS011;75162;42.120;21.734;2024-01-07T10:29:04;10.18;;;4.50;;
84897;SDS011;75162;42.120;21.734;2024-01-07T10:31:33;10.10;;;6.25;;
84897;SDS011;75162;42.120;21.734;2024-01-07T10:34:00;39.25;;;15.40;;
84897;SDS011;75162;42.120;21.734;2024-01-07T10:36:26;26.92;;;12.23;;
84897;SDS011;75162;42.120;21.734;2024-01-07T10:38:52;17.73;;;8.65;;
84897;SDS011;75162;42.120;21.734;2024-01-07T10:41:18;12.40;;;6.70;;
84897;SDS011;75162;42.120;21.734;2024-01-07T10:43:48;11.55;;;6.65;;
84897;SDS011;75162;42.120;21.734;2024-01-07T10:46:15;14.70;;;8.40;;
84897;SDS011;75162;42.120;21.734;2024-01-07T10:48:45;15.93;;;8.20;;
84897;SDS011;75162;42.120;21.734;2024-01-07T10:51:13;11.18;;;6.30;;
84897;SDS011;75162;42.120;21.734;2024-01-07T10:53:40;15.15;;;7.50;;
84897;SDS011;75162;42.120;21.734;2024-01-07T10:56:08;26.80;;;11.85;;
84897;SDS011;75162;42.120;21.734;2024-01-07T10:58:37;11.02;;;5.82;;
84897;SDS011;75162;42.120;21.734;2024-01-07T11:01:03;7.45;;;3.40;;
84897;SDS011;75162;42.120;21.734;2024-01-07T11:03:38;10.88;;;6.50;;
84897;SDS011;75162;42.120;21.734;2024-01-07T11:06:27;13.95;;;8.32;;
84897;SDS011;75162;42.120;21.734;2024-01-07T11:08:57;12.90;;;6.82;;
84897;SDS011;75162;42.120;21.734;2024-01-07T11:11:27;11.95;;;6.30;;
84897;SDS011;75162;42.120;21.734;2024-01-07T11:13:58;16.33;;;8.25;;
84897;SDS011;75162;42.120;21.734;2024-01-07T11:16:43;11.75;;;7.05;;
84897;SDS011;75162;42.120;21.734;2024-01-07T11:19:09;11.15;;;6.25;;
84897;SDS011;75162;42.120;21.734;2024-01-07T11:21:35;11.82;;;6.05;;
84897;SDS011;75162;42.120;21.734;2024-01-07T11:24:01;9.02;;;4.93;;
84897;SDS011;75162;42.120;21.734;2024-01-07T11:26:28;11.20;;;6.13;;
84897;SDS011;75162;42.120;21.734;2024-01-07T11:28:57;6.00;;;3.53;;
84897;SDS011;75162;42.120;21.734;2024-01-07T11:34:05;14.48;;;6.53;;
84897;SDS011;75162;42.120;21.734;2024-01-07T11:36:31;13.68;;;6.80;;
84897;SDS011;75162;42.120;21.734;2024-01-07T11:39:00;12.00;;;5.78;;
84897;SDS011;75162;42.120;21.734;2024-01-07T11:41:27;13.40;;;7.55;;
84897;SDS011;75162;42.120;21.734;2024-01-07T11:43:55;10.88;;;5.75;;
84897;SDS011;75162;42.120;21.734;2024-01-07T11:46:22;14.32;;;6.82;;
84897;SDS011;75162;42.120;21.734;2024-01-07T11:48:50;10.65;;;5.65;;
84897;SDS011;75162;42.120;21.734;2024-01-07T11:51:16;13.98;;;7.78;;
84897;SDS011;75162;42.120;21.734;2024-01-07T11:53:42;27.15;;;12.25;;
84897;SDS011;75162;42.120;21.734;2024-01-07T11:56:08;25.13;;;10.23;;
84897;SDS011;75162;42.120;21.734;2024-01-07T11:58:35;24.50;;;11.00;;
84897;SDS011;75162;42.120;21.734;2024-01-07T12:01:01;14.05;;;7.82;;
84897;SDS011;75162;42.120;21.734;2024-01-07T12:03:28;18.63;;;10.45;;
84897;SDS011;75162;42.120;21.734;2024-01-07T12:05:54;26.15;;;11.85;;
84897;SDS011;75162;42.120;21.734;2024-01-07T12:08:20;18.48;;;8.65;;
84897;SDS011;75162;42.120;21.734;2024-01-07T12:10:46;14.23;;;7.55;;
84897;SDS011;75162;42.120;21.734;2024-01-07T12:13:13;10.73;;;5.72;;
84897;SDS011;75162;42.120;21.734;2024-01-07T12:15:39;13.55;;;7.07;;
84897;SDS011;75162;42.120;21.734;2024-01-07T12:18:05;13.32;;;7.45;;
84897;SDS011;75162;42.120;21.734;2024-01-07T12:20:32;8.20;;;4.50;;
84897;SDS011;75162;42.120;21.734;2024-01-07T12:23:07;12.80;;;7.68;;
84897;SDS011;75162;42.120;21.734;2024-01-07T12:25:34;18.98;;;9.77;;
84897;SDS011;75162;42.120;21.734;2024-01-07T12:28:00;10.77;;;7.60;;
84897;SDS011;75162;42.120;21.734;2024-01-07T12:30:27;13.45;;;7.72;;
84897;SDS011;75162;42.120;21.734;2024-01-07T12:32:53;10.02;;;6.95;;
84897;SDS011;75162;42.120;21.734;2024-01-07T12:35:20;14.98;;;7.63;;
84897;SDS011;75162;42.120;21.734;2024-01-07T12:37:47;9.43;;;5.38;;
84897;SDS011;75162;42.120;21.734;2024-01-07T12:40:14;11.88;;;6.88;;
84897;SDS011;75162;42.120;21.734;2024-01-07T12:42:40;10.73;;;5.28;;
84897;SDS011;75162;42.120;21.734;2024-01-07T12:45:13;11.13;;;6.70;;
84897;SDS011;75162;42.120;21.734;2024-01-07T12:47:40;19.88;;;7.63;;
84897;SDS011;75162;42.120;21.734;2024-01-07T12:50:07;12.75;;;8.10;;
84897;SDS011;75162;42.120;21.734;2024-01-07T12:52:36;13.35;;;8.10;;
84897;SDS011;75162;42.120;21.734;2024-01-07T12:55:03;11.80;;;6.25;;
84897;SDS011;75162;42.120;21.734;2024-01-07T12:57:29;16.50;;;8.00;;
84897;SDS011;75162;42.120;21.734;2024-01-07T12:59:56;25.80;;;9.98;;
84897;SDS011;75162;42.120;21.734;2024-01-07T13:02:22;11.73;;;6.47;;
84897;SDS011;75162;42.120;21.734;2024-01-07T13:04:49;9.45;;;5.10;;
84897;SDS011;75162;42.120;21.734;2024-01-07T13:07:15;15.27;;;6.65;;
84897;SDS011;75162;42.120;21.734;2024-01-07T13:09:41;12.70;;;6.90;;
84897;SDS011;75162;42.120;21.734;2024-01-07T13:12:09;8.32;;;3.35;;
84897;SDS011;75162;42.120;21.734;2024-01-07T13:14:35;5.72;;;3.30;;
84897;SDS011;75162;42.120;21.734;2024-01-07T13:17:04;6.88;;;3.45;;
84897;SDS011;75162;42.120;21.734;2024-01-07T13:19:30;9.63;;;6.38;;
84897;SDS011;75162;42.120;21.734;2024-01-07T13:21:56;11.88;;;6.95;;
84897;SDS011;75162;42.120;21.734;2024-01-07T13:24:24;17.05;;;10.10;;
84897;SDS011;75162;42.120;21.734;2024-01-07T13:26:50;17.08;;;10.80;;
84897;SDS011;75162;42.120;21.734;2024-01-07T13:29:16;13.73;;;7.20;;
84897;SDS011;75162;42.120;21.734;2024-01-07T13:31:42;9.02;;;4.70;;
84897;SDS011;75162;42.120;21.734;2024-01-07T13:34:08;12.70;;;7.40;;
84897;SDS011;75162;42.120;21.734;2024-01-07T13:36:35;13.57;;;8.35;;
84897;SDS011;75162;42.120;21.734;2024-01-07T13:39:01;12.38;;;7.07;;
84897;SDS011;75162;42.120;21.734;2024-01-07T13:41:28;8.85;;;5.57;;
84897;SDS011;75162;42.120;21.734;2024-01-07T13:43:54;7.68;;;4.70;;
84897;SDS011;75162;42.120;21.734;2024-01-07T13:46:21;6.65;;;3.78;;
84897;SDS011;75162;42.120;21.734;2024-01-07T13:48:49;5.00;;;3.80;;
84897;SDS011;75162;42.120;21.734;2024-01-07T13:51:17;5.88;;;3.33;;
84897;SDS011;75162;42.120;21.734;2024-01-07T13:53:43;6.60;;;3.50;;
84897;SDS011;75162;42.120;21.734;2024-01-07T13:56:11;8.93;;;4.05;;
84897;SDS011;75162;42.120;21.734;2024-01-07T13:58:37;13.98;;;6.65;;
84897;SDS011;75162;42.120;21.734;2024-01-07T14:01:03;9.88;;;5.65;;
84897;SDS011;75162;42.120;21.734;2024-01-07T14:03:32;12.95;;;5.57;;
84897;SDS011;75162;42.120;21.734;2024-01-07T14:05:58;15.10;;;6.95;;
84897;SDS011;75162;42.120;21.734;2024-01-07T14:08:28;9.75;;;4.88;;
84897;SDS011;75162;42.120;21.734;2024-01-07T14:10:54;10.25;;;4.25;;
84897;SDS011;75162;42.120;21.734;2024-01-07T14:13:20;15.38;;;7.47;;
84897;SDS011;75162;42.120;21.734;2024-01-07T14:15:47;10.77;;;5.25;;
84897;SDS011;75162;42.120;21.734;2024-01-07T14:18:13;7.97;;;4.90;;
84897;SDS011;75162;42.120;21.734;2024-01-07T14:20:42;7.82;;;3.97;;